HAAB

Addis Ababa Bole International Airport

Addis Ababa, Ethiopia
METAR HAAB 160500Z 07004KT SCT030 12/03 Q1030
Observed Flight Rules
Dec-16 @ 05:00 UTC (52 minutes ago)
Wind Clouds
70° at 4 knots
  • Scattered at 3,000' AGL
Temperatures Readings
Current 12°C / 54°F
Dewpoint 3°C / 37°F
Humidity 54%
Altimeter 30.41" Hg
Pressure 1030 hPa
Elevation 2355
METAR HAAB 160500Z 07004KT SCT030 12/03 Q1030
Observed Flight Rules
Dec-16 @ 05:00 UTC
(52 minutes ago)
Wind
70° at 4 knots
Clouds
  • Scattered at 3,000' AGL
Temperature Dewpoint
12°C / 54°F 3°C / 37°F
Humidity Altimeter Pressure
54% 30.41" Hg 1030 hPa